sensor_id;sensor_type;location;lat;lon;timestamp;P1;durP1;ratioP1;P2;durP2;ratioP2
27305;SDS011;14792;50.886;6.468;2022-09-29T00:02:15;12.20;;;5.72;;
27305;SDS011;14792;50.886;6.468;2022-09-29T00:05:17;7.70;;;5.90;;
27305;SDS011;14792;50.886;6.468;2022-09-29T00:08:19;7.03;;;5.80;;
27305;SDS011;14792;50.886;6.468;2022-09-29T00:11:20;9.90;;;6.37;;
27305;SDS011;14792;50.886;6.468;2022-09-29T00:14:22;12.93;;;7.10;;
27305;SDS011;14792;50.886;6.468;2022-09-29T00:17:23;8.95;;;7.00;;
27305;SDS011;14792;50.886;6.468;2022-09-29T00:20:25;10.65;;;8.53;;
27305;SDS011;14792;50.886;6.468;2022-09-29T00:23:26;10.18;;;7.05;;
27305;SDS011;14792;50.886;6.468;2022-09-29T00:26:28;10.32;;;6.80;;
27305;SDS011;14792;50.886;6.468;2022-09-29T00:29:30;9.05;;;7.15;;
27305;SDS011;14792;50.886;6.468;2022-09-29T00:32:31;9.28;;;6.67;;
27305;SDS011;14792;50.886;6.468;2022-09-29T00:35:33;10.60;;;7.50;;
27305;SDS011;14792;50.886;6.468;2022-09-29T00:38:35;7.22;;;6.35;;
27305;SDS011;14792;50.886;6.468;2022-09-29T00:41:36;9.10;;;6.75;;
27305;SDS011;14792;50.886;6.468;2022-09-29T00:48:01;14.23;;;6.50;;
27305;SDS011;14792;50.886;6.468;2022-09-29T00:51:08;8.38;;;7.03;;
27305;SDS011;14792;50.886;6.468;2022-09-29T00:54:10;11.93;;;8.25;;
27305;SDS011;14792;50.886;6.468;2022-09-29T00:57:11;10.53;;;8.13;;
27305;SDS011;14792;50.886;6.468;2022-09-29T01:00:13;11.18;;;8.05;;
27305;SDS011;14792;50.886;6.468;2022-09-29T01:03:15;11.85;;;8.68;;
27305;SDS011;14792;50.886;6.468;2022-09-29T01:06:17;9.90;;;8.85;;
27305;SDS011;14792;50.886;6.468;2022-09-29T01:09:22;11.35;;;8.80;;
27305;SDS011;14792;50.886;6.468;2022-09-29T01:12:22;10.90;;;8.25;;
27305;SDS011;14792;50.886;6.468;2022-09-29T01:15:23;10.82;;;8.00;;
27305;SDS011;14792;50.886;6.468;2022-09-29T01:18:25;10.88;;;8.10;;
27305;SDS011;14792;50.886;6.468;2022-09-29T01:25:10;11.97;;;9.08;;
27305;SDS011;14792;50.886;6.468;2022-09-29T01:28:20;13.65;;;9.15;;
27305;SDS011;14792;50.886;6.468;2022-09-29T01:31:28;9.60;;;8.55;;
27305;SDS011;14792;50.886;6.468;2022-09-29T01:38:17;11.80;;;8.23;;
27305;SDS011;14792;50.886;6.468;2022-09-29T01:47:52;11.00;;;7.62;;
27305;SDS011;14792;50.886;6.468;2022-09-29T01:50:51;13.15;;;8.15;;
27305;SDS011;14792;50.886;6.468;2022-09-29T01:53:52;10.23;;;8.98;;
27305;SDS011;14792;50.886;6.468;2022-09-29T01:56:58;11.28;;;8.68;;
27305;SDS011;14792;50.886;6.468;2022-09-29T02:00:07;11.10;;;8.50;;
27305;SDS011;14792;50.886;6.468;2022-09-29T02:03:14;10.45;;;8.25;;
27305;SDS011;14792;50.886;6.468;2022-09-29T02:06:20;11.28;;;7.62;;
27305;SDS011;14792;50.886;6.468;2022-09-29T02:09:24;10.68;;;7.17;;
27305;SDS011;14792;50.886;6.468;2022-09-29T02:12:22;10.28;;;7.42;;
27305;SDS011;14792;50.886;6.468;2022-09-29T02:15:27;11.03;;;7.65;;
27305;SDS011;14792;50.886;6.468;2022-09-29T02:18:36;8.90;;;7.67;;
27305;SDS011;14792;50.886;6.468;2022-09-29T02:21:37;10.38;;;7.67;;
27305;SDS011;14792;50.886;6.468;2022-09-29T02:24:39;10.88;;;8.10;;
27305;SDS011;14792;50.886;6.468;2022-09-29T02:27:40;13.70;;;9.38;;
27305;SDS011;14792;50.886;6.468;2022-09-29T02:30:42;16.40;;;8.68;;
27305;SDS011;14792;50.886;6.468;2022-09-29T02:33:44;9.68;;;7.78;;
27305;SDS011;14792;50.886;6.468;2022-09-29T02:36:56;14.10;;;8.50;;
27305;SDS011;14792;50.886;6.468;2022-09-29T02:40:03;15.38;;;10.40;;
27305;SDS011;14792;50.886;6.468;2022-09-29T02:43:23;16.35;;;11.00;;
27305;SDS011;14792;50.886;6.468;2022-09-29T02:46:33;22.75;;;13.10;;
27305;SDS011;14792;50.886;6.468;2022-09-29T02:49:41;21.62;;;13.50;;
27305;SDS011;14792;50.886;6.468;2022-09-29T02:53:00;21.50;;;13.32;;
27305;SDS011;14792;50.886;6.468;2022-09-29T02:59:09;21.55;;;11.70;;
27305;SDS011;14792;50.886;6.468;2022-09-29T03:02:10;21.85;;;14.07;;
27305;SDS011;14792;50.886;6.468;2022-09-29T03:05:16;25.80;;;14.38;;
27305;SDS011;14792;50.886;6.468;2022-09-29T03:08:16;23.90;;;13.62;;
27305;SDS011;14792;50.886;6.468;2022-09-29T03:11:18;14.00;;;11.18;;
27305;SDS011;14792;50.886;6.468;2022-09-29T03:14:19;16.82;;;12.33;;
27305;SDS011;14792;50.886;6.468;2022-09-29T03:17:21;15.05;;;12.05;;
27305;SDS011;14792;50.886;6.468;2022-09-29T03:20:23;15.05;;;11.22;;
27305;SDS011;14792;50.886;6.468;2022-09-29T03:23:24;14.98;;;10.88;;
27305;SDS011;14792;50.886;6.468;2022-09-29T03:26:26;16.73;;;12.05;;
27305;SDS011;14792;50.886;6.468;2022-09-29T03:29:27;12.82;;;11.12;;
27305;SDS011;14792;50.886;6.468;2022-09-29T03:32:29;12.40;;;10.38;;
27305;SDS011;14792;50.886;6.468;2022-09-29T03:35:31;14.53;;;10.80;;
27305;SDS011;14792;50.886;6.468;2022-09-29T03:38:32;18.62;;;13.83;;
27305;SDS011;14792;50.886;6.468;2022-09-29T03:41:35;20.52;;;12.98;;
27305;SDS011;14792;50.886;6.468;2022-09-29T03:44:35;16.80;;;13.93;;
27305;SDS011;14792;50.886;6.468;2022-09-29T03:47:37;20.15;;;14.45;;
27305;SDS011;14792;50.886;6.468;2022-09-29T03:50:38;20.10;;;14.87;;
27305;SDS011;14792;50.886;6.468;2022-09-29T03:53:40;19.15;;;15.40;;
27305;SDS011;14792;50.886;6.468;2022-09-29T03:56:42;18.45;;;14.30;;
27305;SDS011;14792;50.886;6.468;2022-09-29T03:59:43;29.00;;;16.73;;
27305;SDS011;14792;50.886;6.468;2022-09-29T04:02:45;22.80;;;15.88;;
27305;SDS011;14792;50.886;6.468;2022-09-29T04:05:47;22.60;;;16.85;;
27305;SDS011;14792;50.886;6.468;2022-09-29T04:08:48;24.70;;;16.45;;
27305;SDS011;14792;50.886;6.468;2022-09-29T04:11:50;22.45;;;16.23;;
27305;SDS011;14792;50.886;6.468;2022-09-29T04:14:51;17.60;;;15.35;;
27305;SDS011;14792;50.886;6.468;2022-09-29T04:17:53;21.05;;;14.75;;
27305;SDS011;14792;50.886;6.468;2022-09-29T04:20:55;20.45;;;14.78;;
27305;SDS011;14792;50.886;6.468;2022-09-29T04:23:59;22.73;;;15.00;;
27305;SDS011;14792;50.886;6.468;2022-09-29T04:27:00;20.02;;;14.83;;
27305;SDS011;14792;50.886;6.468;2022-09-29T04:30:02;21.35;;;14.38;;
27305;SDS011;14792;50.886;6.468;2022-09-29T04:33:04;24.02;;;15.20;;
27305;SDS011;14792;50.886;6.468;2022-09-29T04:36:05;20.30;;;13.75;;
27305;SDS011;14792;50.886;6.468;2022-09-29T04:39:07;16.95;;;14.00;;
27305;SDS011;14792;50.886;6.468;2022-09-29T04:42:09;24.20;;;14.75;;
27305;SDS011;14792;50.886;6.468;2022-09-29T04:45:10;25.02;;;13.65;;
27305;SDS011;14792;50.886;6.468;2022-09-29T04:48:12;16.95;;;13.48;;
27305;SDS011;14792;50.886;6.468;2022-09-29T04:51:13;19.48;;;13.78;;
27305;SDS011;14792;50.886;6.468;2022-09-29T04:54:15;14.30;;;10.32;;
27305;SDS011;14792;50.886;6.468;2022-09-29T04:57:16;25.80;;;16.07;;
27305;SDS011;14792;50.886;6.468;2022-09-29T05:00:18;20.45;;;14.65;;
27305;SDS011;14792;50.886;6.468;2022-09-29T05:03:20;26.15;;;16.42;;
27305;SDS011;14792;50.886;6.468;2022-09-29T05:06:21;23.47;;;16.55;;
27305;SDS011;14792;50.886;6.468;2022-09-29T05:09:23;25.68;;;16.35;;
27305;SDS011;14792;50.886;6.468;2022-09-29T05:12:24;22.80;;;16.90;;
27305;SDS011;14792;50.886;6.468;2022-09-29T05:15:26;28.27;;;17.05;;
27305;SDS011;14792;50.886;6.468;2022-09-29T05:18:28;21.80;;;16.52;;
27305;SDS011;14792;50.886;6.468;2022-09-29T05:21:29;26.87;;;17.57;;
27305;SDS011;14792;50.886;6.468;2022-09-29T05:24:31;31.65;;;17.30;;
27305;SDS011;14792;50.886;6.468;2022-09-29T05:27:32;23.98;;;15.75;;
27305;SDS011;14792;50.886;6.468;2022-09-29T05:30:34;37.42;;;17.37;;
27305;SDS011;14792;50.886;6.468;2022-09-29T05:33:36;29.42;;;16.97;;
27305;SDS011;14792;50.886;6.468;2022-09-29T05:36:37;37.10;;;16.77;;
27305;SDS011;14792;50.886;6.468;2022-09-29T05:39:39;31.48;;;15.98;;
27305;SDS011;14792;50.886;6.468;2022-09-29T05:42:40;40.15;;;17.23;;
27305;SDS011;14792;50.886;6.468;2022-09-29T05:45:42;38.35;;;16.93;;
27305;SDS011;14792;50.886;6.468;2022-09-29T05:48:46;31.95;;;17.90;;
27305;SDS011;14792;50.886;6.468;2022-09-29T05:51:48;30.27;;;17.20;;
27305;SDS011;14792;50.886;6.468;2022-09-29T05:54:49;39.98;;;17.87;;
27305;SDS011;14792;50.886;6.468;2022-09-29T05:57:51;40.17;;;17.85;;
27305;SDS011;14792;50.886;6.468;2022-09-29T06:00:52;31.80;;;17.20;;
27305;SDS011;14792;50.886;6.468;2022-09-29T06:03:54;37.30;;;20.02;;
27305;SDS011;14792;50.886;6.468;2022-09-29T06:06:56;38.55;;;19.55;;
27305;SDS011;14792;50.886;6.468;2022-09-29T06:09:57;34.38;;;19.40;;
27305;SDS011;14792;50.886;6.468;2022-09-29T06:12:59;27.45;;;17.32;;
27305;SDS011;14792;50.886;6.468;2022-09-29T06:16:00;36.90;;;18.32;;
27305;SDS011;14792;50.886;6.468;2022-09-29T06:19:02;36.48;;;17.48;;
27305;SDS011;14792;50.886;6.468;2022-09-29T06:22:04;33.45;;;18.17;;
27305;SDS011;14792;50.886;6.468;2022-09-29T06:25:05;34.53;;;18.25;;
27305;SDS011;14792;50.886;6.468;2022-09-29T06:28:07;34.18;;;18.85;;
27305;SDS011;14792;50.886;6.468;2022-09-29T06:31:12;35.10;;;19.15;;
27305;SDS011;14792;50.886;6.468;2022-09-29T06:34:16;35.52;;;18.35;;
27305;SDS011;14792;50.886;6.468;2022-09-29T06:37:17;45.05;;;19.73;;
27305;SDS011;14792;50.886;6.468;2022-09-29T06:40:37;34.20;;;18.50;;
27305;SDS011;14792;50.886;6.468;2022-09-29T06:43:38;39.03;;;19.25;;
27305;SDS011;14792;50.886;6.468;2022-09-29T06:46:40;37.00;;;19.42;;
27305;SDS011;14792;50.886;6.468;2022-09-29T06:49:42;36.15;;;18.52;;
27305;SDS011;14792;50.886;6.468;2022-09-29T06:52:43;46.40;;;19.82;;
27305;SDS011;14792;50.886;6.468;2022-09-29T06:55:50;38.05;;;18.23;;
27305;SDS011;14792;50.886;6.468;2022-09-29T06:58:52;39.03;;;18.65;;
27305;SDS011;14792;50.886;6.468;2022-09-29T07:01:54;38.50;;;17.45;;
27305;SDS011;14792;50.886;6.468;2022-09-29T07:04:55;39.05;;;18.12;;
27305;SDS011;14792;50.886;6.468;2022-09-29T07:07:57;35.65;;;17.50;;
27305;SDS011;14792;50.886;6.468;2022-09-29T07:10:59;28.05;;;16.23;;
27305;SDS011;14792;50.886;6.468;2022-09-29T07:14:00;28.77;;;13.60;;
27305;SDS011;14792;50.886;6.468;2022-09-29T07:17:02;29.40;;;13.03;;
27305;SDS011;14792;50.886;6.468;2022-09-29T07:20:04;20.48;;;11.73;;
27305;SDS011;14792;50.886;6.468;2022-09-29T07:23:06;44.13;;;13.68;;
27305;SDS011;14792;50.886;6.468;2022-09-29T07:26:07;34.18;;;12.33;;
27305;SDS011;14792;50.886;6.468;2022-09-29T07:29:09;25.57;;;11.55;;
27305;SDS011;14792;50.886;6.468;2022-09-29T07:32:10;34.55;;;11.40;;
27305;SDS011;14792;50.886;6.468;2022-09-29T07:35:12;41.55;;;10.13;;
27305;SDS011;14792;50.886;6.468;2022-09-29T07:38:13;22.75;;;11.00;;
27305;SDS011;14792;50.886;6.468;2022-09-29T07:41:15;28.92;;;10.40;;
27305;SDS011;14792;50.886;6.468;2022-09-29T07:47:18;30.40;;;10.55;;
27305;SDS011;14792;50.886;6.468;2022-09-29T07:50:20;45.25;;;13.75;;
27305;SDS011;14792;50.886;6.468;2022-09-29T07:53:22;37.53;;;11.73;;
27305;SDS011;14792;50.886;6.468;2022-09-29T07:56:23;38.10;;;10.82;;
27305;SDS011;14792;50.886;6.468;2022-09-29T07:59:25;33.20;;;9.50;;
27305;SDS011;14792;50.886;6.468;2022-09-29T08:02:26;29.65;;;9.10;;
27305;SDS011;14792;50.886;6.468;2022-09-29T08:05:28;31.65;;;10.68;;
27305;SDS011;14792;50.886;6.468;2022-09-29T08:08:39;31.68;;;9.05;;
27305;SDS011;14792;50.886;6.468;2022-09-29T08:11:38;33.88;;;7.70;;
27305;SDS011;14792;50.886;6.468;2022-09-29T08:14:39;29.02;;;7.40;;
27305;SDS011;14792;50.886;6.468;2022-09-29T08:17:40;48.42;;;7.17;;
27305;SDS011;14792;50.886;6.468;2022-09-29T08:20:42;37.67;;;6.85;;
27305;SDS011;14792;50.886;6.468;2022-09-29T08:23:43;33.55;;;7.20;;
27305;SDS011;14792;50.886;6.468;2022-09-29T08:26:45;37.85;;;7.35;;
27305;SDS011;14792;50.886;6.468;2022-09-29T08:29:46;38.73;;;7.80;;
27305;SDS011;14792;50.886;6.468;2022-09-29T08:32:52;29.90;;;6.78;;
27305;SDS011;14792;50.886;6.468;2022-09-29T08:35:56;38.33;;;6.97;;
27305;SDS011;14792;50.886;6.468;2022-09-29T08:38:57;44.95;;;7.33;;
27305;SDS011;14792;50.886;6.468;2022-09-29T08:42:04;50.83;;;7.33;;
27305;SDS011;14792;50.886;6.468;2022-09-29T08:45:06;47.85;;;6.78;;
27305;SDS011;14792;50.886;6.468;2022-09-29T08:48:09;39.70;;;7.25;;
27305;SDS011;14792;50.886;6.468;2022-09-29T08:51:26;51.18;;;7.00;;
27305;SDS011;14792;50.886;6.468;2022-09-29T08:54:29;42.83;;;6.15;;
27305;SDS011;14792;50.886;6.468;2022-09-29T08:57:30;41.45;;;7.40;;
27305;SDS011;14792;50.886;6.468;2022-09-29T09:00:36;36.08;;;6.05;;
27305;SDS011;14792;50.886;6.468;2022-09-29T09:03:54;38.45;;;6.65;;
27305;SDS011;14792;50.886;6.468;2022-09-29T09:26:03;24.98;;;5.55;;
27305;SDS011;14792;50.886;6.468;2022-09-29T09:29:10;26.77;;;5.28;;
27305;SDS011;14792;50.886;6.468;2022-09-29T09:32:23;29.07;;;5.37;;
27305;SDS011;14792;50.886;6.468;2022-09-29T09:35:31;31.45;;;6.30;;
27305;SDS011;14792;50.886;6.468;2022-09-29T09:38:46;19.42;;;4.90;;
27305;SDS011;14792;50.886;6.468;2022-09-29T09:41:47;19.85;;;5.33;;
27305;SDS011;14792;50.886;6.468;2022-09-29T09:44:50;26.65;;;6.12;;
27305;SDS011;14792;50.886;6.468;2022-09-29T09:47:54;20.77;;;5.60;;
27305;SDS011;14792;50.886;6.468;2022-09-29T09:50:51;20.92;;;4.65;;
27305;SDS011;14792;50.886;6.468;2022-09-29T09:53:53;26.10;;;5.20;;
27305;SDS011;14792;50.886;6.468;2022-09-29T09:56:59;25.90;;;5.50;;
27305;SDS011;14792;50.886;6.468;2022-09-29T10:03:37;18.75;;;5.90;;
27305;SDS011;14792;50.886;6.468;2022-09-29T10:06:39;28.52;;;4.72;;
27305;SDS011;14792;50.886;6.468;2022-09-29T10:09:41;19.98;;;4.85;;
27305;SDS011;14792;50.886;6.468;2022-09-29T10:12:42;19.62;;;5.03;;
27305;SDS011;14792;50.886;6.468;2022-09-29T10:15:57;29.98;;;5.95;;
27305;SDS011;14792;50.886;6.468;2022-09-29T10:19:12;27.07;;;5.65;;
27305;SDS011;14792;50.886;6.468;2022-09-29T10:22:14;19.32;;;5.50;;
27305;SDS011;14792;50.886;6.468;2022-09-29T10:25:18;18.92;;;5.00;;
27305;SDS011;14792;50.886;6.468;2022-09-29T10:28:20;14.65;;;5.00;;
27305;SDS011;14792;50.886;6.468;2022-09-29T10:31:31;19.20;;;4.85;;
27305;SDS011;14792;50.886;6.468;2022-09-29T10:34:33;15.93;;;4.70;;
27305;SDS011;14792;50.886;6.468;2022-09-29T10:37:36;30.05;;;5.58;;
27305;SDS011;14792;50.886;6.468;2022-09-29T10:40:38;25.27;;;5.15;;
27305;SDS011;14792;50.886;6.468;2022-09-29T10:43:40;20.65;;;5.10;;
27305;SDS011;14792;50.886;6.468;2022-09-29T10:46:51;20.32;;;5.17;;
27305;SDS011;14792;50.886;6.468;2022-09-29T10:50:10;12.50;;;4.08;;
27305;SDS011;14792;50.886;6.468;2022-09-29T10:56:28;13.28;;;4.25;;
27305;SDS011;14792;50.886;6.468;2022-09-29T10:59:29;13.68;;;4.20;;
27305;SDS011;14792;50.886;6.468;2022-09-29T11:02:32;20.20;;;4.37;;
27305;SDS011;14792;50.886;6.468;2022-09-29T11:05:32;16.67;;;4.30;;
27305;SDS011;14792;50.886;6.468;2022-09-29T11:08:52;11.70;;;4.20;;
27305;SDS011;14792;50.886;6.468;2022-09-29T11:11:36;11.55;;;4.22;;
27305;SDS011;14792;50.886;6.468;2022-09-29T11:17:39;16.87;;;4.10;;
27305;SDS011;14792;50.886;6.468;2022-09-29T11:20:40;14.70;;;3.87;;
27305;SDS011;14792;50.886;6.468;2022-09-29T11:23:44;11.70;;;3.83;;
27305;SDS011;14792;50.886;6.468;2022-09-29T11:30:39;12.00;;;3.80;;
27305;SDS011;14792;50.886;6.468;2022-09-29T11:33:39;11.80;;;3.47;;
27305;SDS011;14792;50.886;6.468;2022-09-29T11:36:39;10.75;;;3.60;;
27305;SDS011;14792;50.886;6.468;2022-09-29T11:39:47;13.18;;;4.05;;
27305;SDS011;14792;50.886;6.468;2022-09-29T11:52:51;14.90;;;3.33;;
27305;SDS011;14792;50.886;6.468;2022-09-29T12:09:08;17.32;;;3.45;;
27305;SDS011;14792;50.886;6.468;2022-09-29T12:12:33;7.65;;;3.62;;
27305;SDS011;14792;50.886;6.468;2022-09-29T12:22:13;14.87;;;3.20;;
27305;SDS011;14792;50.886;6.468;2022-09-29T12:25:13;11.65;;;2.87;;
27305;SDS011;14792;50.886;6.468;2022-09-29T12:28:14;9.10;;;2.85;;
27305;SDS011;14792;50.886;6.468;2022-09-29T12:31:19;11.00;;;2.85;;
27305;SDS011;14792;50.886;6.468;2022-09-29T12:35:01;9.60;;;3.00;;
27305;SDS011;14792;50.886;6.468;2022-09-29T12:37:37;8.45;;;3.10;;
27305;SDS011;14792;50.886;6.468;2022-09-29T12:44:18;5.58;;;2.20;;
27305;SDS011;14792;50.886;6.468;2022-09-29T12:50:41;7.00;;;1.67;;
27305;SDS011;14792;50.886;6.468;2022-09-29T12:53:52;3.60;;;1.25;;
27305;SDS011;14792;50.886;6.468;2022-09-29T12:57:40;4.65;;;1.45;;
27305;SDS011;14792;50.886;6.468;2022-09-29T13:00:20;3.25;;;1.50;;
27305;SDS011;14792;50.886;6.468;2022-09-29T13:03:25;7.20;;;2.40;;
27305;SDS011;14792;50.886;6.468;2022-09-29T13:06:42;4.45;;;1.42;;
27305;SDS011;14792;50.886;6.468;2022-09-29T13:09:49;10.32;;;2.00;;
27305;SDS011;14792;50.886;6.468;2022-09-29T13:29:13;3.52;;;1.05;;
27305;SDS011;14792;50.886;6.468;2022-09-29T13:32:14;4.22;;;1.35;;
27305;SDS011;14792;50.886;6.468;2022-09-29T13:35:17;3.90;;;1.30;;
27305;SDS011;14792;50.886;6.468;2022-09-29T13:38:23;5.00;;;1.25;;
27305;SDS011;14792;50.886;6.468;2022-09-29T13:44:29;3.37;;;1.10;;
27305;SDS011;14792;50.886;6.468;2022-09-29T13:47:32;2.50;;;1.20;;
27305;SDS011;14792;50.886;6.468;2022-09-29T13:53:43;4.50;;;1.40;;
27305;SDS011;14792;50.886;6.468;2022-09-29T13:56:46;5.87;;;1.57;;
27305;SDS011;14792;50.886;6.468;2022-09-29T14:02:59;5.30;;;1.55;;
27305;SDS011;14792;50.886;6.468;2022-09-29T14:06:04;4.37;;;1.60;;
27305;SDS011;14792;50.886;6.468;2022-09-29T14:09:11;6.08;;;1.77;;
27305;SDS011;14792;50.886;6.468;2022-09-29T14:12:07;7.78;;;5.30;;
27305;SDS011;14792;50.886;6.468;2022-09-29T14:15:07;7.50;;;2.15;;
27305;SDS011;14792;50.886;6.468;2022-09-29T14:18:16;11.05;;;7.40;;
27305;SDS011;14792;50.886;6.468;2022-09-29T14:24:52;5.30;;;2.15;;
27305;SDS011;14792;50.886;6.468;2022-09-29T14:30:57;6.85;;;2.40;;
27305;SDS011;14792;50.886;6.468;2022-09-29T14:33:59;7.45;;;2.83;;
27305;SDS011;14792;50.886;6.468;2022-09-29T14:37:00;9.30;;;2.45;;
27305;SDS011;14792;50.886;6.468;2022-09-29T14:40:02;5.45;;;3.30;;
27305;SDS011;14792;50.886;6.468;2022-09-29T14:43:36;5.60;;;2.77;;
27305;SDS011;14792;50.886;6.468;2022-09-29T14:50:13;6.78;;;2.33;;
27305;SDS011;14792;50.886;6.468;2022-09-29T14:56:51;3.58;;;2.08;;
27305;SDS011;14792;50.886;6.468;2022-09-29T15:03:04;4.47;;;1.72;;
27305;SDS011;14792;50.886;6.468;2022-09-29T15:06:09;3.05;;;1.80;;
27305;SDS011;14792;50.886;6.468;2022-09-29T15:09:16;7.53;;;1.85;;
27305;SDS011;14792;50.886;6.468;2022-09-29T15:12:21;3.90;;;1.98;;
27305;SDS011;14792;50.886;6.468;2022-09-29T15:15:28;5.60;;;1.90;;
27305;SDS011;14792;50.886;6.468;2022-09-29T15:18:47;4.17;;;2.00;;
27305;SDS011;14792;50.886;6.468;2022-09-29T15:25:41;4.72;;;1.90;;
27305;SDS011;14792;50.886;6.468;2022-09-29T15:28:42;6.47;;;1.60;;
27305;SDS011;14792;50.886;6.468;2022-09-29T15:31:44;7.05;;;1.57;;
27305;SDS011;14792;50.886;6.468;2022-09-29T15:34:45;7.17;;;2.87;;
27305;SDS011;14792;50.886;6.468;2022-09-29T15:37:53;4.70;;;1.90;;
27305;SDS011;14792;50.886;6.468;2022-09-29T15:40:56;3.87;;;1.90;;
27305;SDS011;14792;50.886;6.468;2022-09-29T15:44:00;3.40;;;1.75;;
27305;SDS011;14792;50.886;6.468;2022-09-29T15:47:01;3.47;;;1.65;;
27305;SDS011;14792;50.886;6.468;2022-09-29T15:50:03;6.78;;;2.20;;
27305;SDS011;14792;50.886;6.468;2022-09-29T15:53:04;9.58;;;1.85;;
27305;SDS011;14792;50.886;6.468;2022-09-29T15:56:05;5.67;;;1.95;;
27305;SDS011;14792;50.886;6.468;2022-09-29T15:59:16;7.30;;;1.82;;
27305;SDS011;14792;50.886;6.468;2022-09-29T16:02:14;4.58;;;1.55;;
27305;SDS011;14792;50.886;6.468;2022-09-29T16:05:29;7.00;;;1.60;;
27305;SDS011;14792;50.886;6.468;2022-09-29T16:08:30;9.25;;;1.75;;
27305;SDS011;14792;50.886;6.468;2022-09-29T16:11:34;9.10;;;1.80;;
27305;SDS011;14792;50.886;6.468;2022-09-29T16:14:36;8.05;;;1.77;;
27305;SDS011;14792;50.886;6.468;2022-09-29T16:17:37;4.62;;;1.57;;
27305;SDS011;14792;50.886;6.468;2022-09-29T16:20:39;5.95;;;2.90;;
27305;SDS011;14792;50.886;6.468;2022-09-29T16:23:46;12.23;;;4.78;;
27305;SDS011;14792;50.886;6.468;2022-09-29T16:26:51;9.48;;;2.52;;
27305;SDS011;14792;50.886;6.468;2022-09-29T16:29:49;6.78;;;2.40;;
27305;SDS011;14792;50.886;6.468;2022-09-29T16:32:54;6.35;;;1.77;;
27305;SDS011;14792;50.886;6.468;2022-09-29T16:38:54;3.90;;;1.90;;
27305;SDS011;14792;50.886;6.468;2022-09-29T16:41:56;6.15;;;1.82;;
27305;SDS011;14792;50.886;6.468;2022-09-29T16:44:57;5.28;;;2.12;;
27305;SDS011;14792;50.886;6.468;2022-09-29T16:47:58;8.80;;;2.20;;
27305;SDS011;14792;50.886;6.468;2022-09-29T16:51:01;4.45;;;2.10;;
27305;SDS011;14792;50.886;6.468;2022-09-29T16:54:02;4.00;;;2.67;;
27305;SDS011;14792;50.886;6.468;2022-09-29T16:57:14;4.83;;;3.77;;
27305;SDS011;14792;50.886;6.468;2022-09-29T17:00:19;3.90;;;2.30;;
27305;SDS011;14792;50.886;6.468;2022-09-29T17:03:21;6.25;;;2.42;;
27305;SDS011;14792;50.886;6.468;2022-09-29T17:06:22;4.12;;;2.60;;
27305;SDS011;14792;50.886;6.468;2022-09-29T17:09:24;6.53;;;3.15;;
27305;SDS011;14792;50.886;6.468;2022-09-29T17:12:26;8.45;;;3.45;;
27305;SDS011;14792;50.886;6.468;2022-09-29T17:15:27;6.17;;;3.20;;
27305;SDS011;14792;50.886;6.468;2022-09-29T17:18:29;54.85;;;27.50;;
27305;SDS011;14792;50.886;6.468;2022-09-29T17:21:30;20.37;;;10.08;;
27305;SDS011;14792;50.886;6.468;2022-09-29T17:24:32;18.67;;;11.10;;
27305;SDS011;14792;50.886;6.468;2022-09-29T17:27:33;11.45;;;6.30;;
27305;SDS011;14792;50.886;6.468;2022-09-29T17:30:53;15.30;;;8.38;;
27305;SDS011;14792;50.886;6.468;2022-09-29T17:33:54;14.43;;;9.00;;
27305;SDS011;14792;50.886;6.468;2022-09-29T17:36:56;10.30;;;5.78;;
27305;SDS011;14792;50.886;6.468;2022-09-29T17:39:58;7.58;;;3.10;;
27305;SDS011;14792;50.886;6.468;2022-09-29T17:42:59;6.47;;;3.20;;
27305;SDS011;14792;50.886;6.468;2022-09-29T17:46:01;7.58;;;4.12;;
27305;SDS011;14792;50.886;6.468;2022-09-29T17:49:02;8.73;;;3.47;;
27305;SDS011;14792;50.886;6.468;2022-09-29T17:52:04;11.53;;;4.95;;
27305;SDS011;14792;50.886;6.468;2022-09-29T17:55:06;11.68;;;6.80;;
27305;SDS011;14792;50.886;6.468;2022-09-29T17:58:09;8.78;;;4.72;;
27305;SDS011;14792;50.886;6.468;2022-09-29T18:01:09;10.60;;;4.28;;
27305;SDS011;14792;50.886;6.468;2022-09-29T18:04:10;12.73;;;4.95;;
27305;SDS011;14792;50.886;6.468;2022-09-29T18:07:12;10.00;;;4.78;;
27305;SDS011;14792;50.886;6.468;2022-09-29T18:10:19;39.40;;;17.67;;
27305;SDS011;14792;50.886;6.468;2022-09-29T18:13:21;37.13;;;16.12;;
27305;SDS011;14792;50.886;6.468;2022-09-29T18:16:22;49.23;;;20.75;;
27305;SDS011;14792;50.886;6.468;2022-09-29T18:19:24;30.45;;;14.10;;
27305;SDS011;14792;50.886;6.468;2022-09-29T18:22:25;28.60;;;13.43;;
27305;SDS011;14792;50.886;6.468;2022-09-29T18:25:27;22.52;;;11.40;;
27305;SDS011;14792;50.886;6.468;2022-09-29T18:28:29;19.92;;;9.93;;
27305;SDS011;14792;50.886;6.468;2022-09-29T18:31:32;30.50;;;21.27;;
27305;SDS011;14792;50.886;6.468;2022-09-29T18:34:33;19.32;;;8.58;;
27305;SDS011;14792;50.886;6.468;2022-09-29T18:37:34;10.13;;;5.55;;
27305;SDS011;14792;50.886;6.468;2022-09-29T18:40:36;7.92;;;3.60;;
27305;SDS011;14792;50.886;6.468;2022-09-29T18:43:37;8.80;;;3.65;;
27305;SDS011;14792;50.886;6.468;2022-09-29T18:46:39;9.68;;;4.50;;
27305;SDS011;14792;50.886;6.468;2022-09-29T18:49:41;8.30;;;5.17;;
27305;SDS011;14792;50.886;6.468;2022-09-29T18:52:42;12.47;;;7.60;;
27305;SDS011;14792;50.886;6.468;2022-09-29T18:55:44;14.45;;;6.97;;
27305;SDS011;14792;50.886;6.468;2022-09-29T18:58:45;8.55;;;3.80;;
27305;SDS011;14792;50.886;6.468;2022-09-29T19:01:47;9.85;;;3.90;;
27305;SDS011;14792;50.886;6.468;2022-09-29T19:04:48;13.03;;;3.12;;
27305;SDS011;14792;50.886;6.468;2022-09-29T19:07:54;10.32;;;3.60;;
27305;SDS011;14792;50.886;6.468;2022-09-29T19:10:55;9.38;;;3.90;;
27305;SDS011;14792;50.886;6.468;2022-09-29T19:13:57;9.43;;;3.77;;
27305;SDS011;14792;50.886;6.468;2022-09-29T19:16:58;9.53;;;4.10;;
27305;SDS011;14792;50.886;6.468;2022-09-29T19:20:00;8.93;;;3.80;;
27305;SDS011;14792;50.886;6.468;2022-09-29T19:23:01;9.00;;;4.83;;
27305;SDS011;14792;50.886;6.468;2022-09-29T19:26:07;10.58;;;5.12;;
27305;SDS011;14792;50.886;6.468;2022-09-29T19:29:05;9.70;;;4.78;;
27305;SDS011;14792;50.886;6.468;2022-09-29T19:32:06;10.88;;;5.35;;
27305;SDS011;14792;50.886;6.468;2022-09-29T19:35:09;9.05;;;6.22;;
27305;SDS011;14792;50.886;6.468;2022-09-29T19:38:09;11.30;;;6.47;;
27305;SDS011;14792;50.886;6.468;2022-09-29T19:41:16;13.28;;;6.80;;
27305;SDS011;14792;50.886;6.468;2022-09-29T19:44:15;17.40;;;7.72;;
27305;SDS011;14792;50.886;6.468;2022-09-29T19:47:17;17.15;;;8.90;;
27305;SDS011;14792;50.886;6.468;2022-09-29T19:50:19;17.98;;;10.20;;
27305;SDS011;14792;50.886;6.468;2022-09-29T19:53:38;16.80;;;10.75;;
27305;SDS011;14792;50.886;6.468;2022-09-29T19:56:41;17.55;;;10.98;;
27305;SDS011;14792;50.886;6.468;2022-09-29T19:59:50;18.90;;;9.05;;
27305;SDS011;14792;50.886;6.468;2022-09-29T20:02:52;17.50;;;7.25;;
27305;SDS011;14792;50.886;6.468;2022-09-29T20:06:00;13.22;;;8.00;;
27305;SDS011;14792;50.886;6.468;2022-09-29T20:08:58;15.50;;;7.40;;
27305;SDS011;14792;50.886;6.468;2022-09-29T20:11:59;13.22;;;8.70;;
27305;SDS011;14792;50.886;6.468;2022-09-29T20:15:01;18.77;;;8.75;;
27305;SDS011;14792;50.886;6.468;2022-09-29T20:18:03;17.67;;;9.03;;
27305;SDS011;14792;50.886;6.468;2022-09-29T20:21:08;18.15;;;9.15;;
27305;SDS011;14792;50.886;6.468;2022-09-29T20:24:10;14.70;;;8.43;;
27305;SDS011;14792;50.886;6.468;2022-09-29T20:27:11;19.87;;;9.63;;
27305;SDS011;14792;50.886;6.468;2022-09-29T20:30:13;19.55;;;9.50;;